createdAt,value
2018-03-16T00:00:49.701Z,100167.83
2018-03-16T00:03:15.488Z,100170.80
2018-03-16T00:05:41.287Z,100168.48
2018-03-16T00:08:07.091Z,100162.20
2018-03-16T00:10:32.875Z,100163.44
2018-03-16T00:12:58.661Z,100161.38
2018-03-16T00:15:24.538Z,100155.00
2018-03-16T00:17:50.355Z,100149.02
2018-03-16T00:20:16.159Z,100154.33
2018-03-16T00:22:41.965Z,100152.52
2018-03-16T00:25:07.778Z,100151.81
2018-03-16T00:27:33.579Z,100153.00
2018-03-16T00:29:59.389Z,100154.28
2018-03-16T00:32:25.184Z,100153.24
2018-03-16T00:34:50.989Z,100159.54
2018-03-16T00:37:16.795Z,100162.94
2018-03-16T00:39:42.572Z,100166.59
2018-03-16T00:42:08.394Z,100176.39
2018-03-16T00:44:34.208Z,100176.31
2018-03-16T00:47:00.013Z,100173.05
2018-03-16T00:49:25.891Z,100166.70
2018-03-16T00:51:51.693Z,100174.08
2018-03-16T00:54:17.483Z,100180.36
2018-03-16T00:56:43.333Z,100181.38
2018-03-16T00:59:09.135Z,100182.09
2018-03-16T01:01:34.932Z,100174.39
2018-03-16T01:04:00.741Z,100182.30
2018-03-16T01:06:26.551Z,100188.16
2018-03-16T01:08:52.356Z,100176.22
2018-03-16T01:11:18.166Z,100187.25
2018-03-16T01:13:43.947Z,100189.14
2018-03-16T01:16:10.071Z,100184.98
2018-03-16T01:18:35.877Z,100182.36
2018-03-16T01:21:01.663Z,100190.79
2018-03-16T01:23:27.489Z,100201.59
2018-03-16T01:25:53.288Z,100195.13
2018-03-16T01:28:19.079Z,100192.23
2018-03-16T01:30:44.899Z,100195.07
2018-03-16T01:33:10.703Z,100193.92
2018-03-16T01:35:36.493Z,100178.85
2018-03-16T01:38:02.578Z,100189.95
2018-03-16T01:40:28.351Z,100198.02
2018-03-16T01:42:54.128Z,100196.07
2018-03-16T01:45:19.910Z,100190.81
2018-03-16T01:47:46.014Z,100193.50
2018-03-16T01:50:11.803Z,100194.09
2018-03-16T01:52:37.592Z,100187.91
2018-03-16T01:55:03.419Z,100188.55
2018-03-16T01:57:29.208Z,100190.69
2018-03-16T01:59:54.998Z,100185.75
2018-03-16T02:02:20.858Z,100181.72
2018-03-16T02:04:46.652Z,100181.94
2018-03-16T02:07:12.460Z,100188.22
2018-03-16T02:09:38.312Z,100183.48
2018-03-16T02:12:04.120Z,100186.00
2018-03-16T02:14:29.951Z,100190.39
2018-03-16T02:16:55.760Z,100194.03
2018-03-16T02:19:21.565Z,100198.16
2018-03-16T02:21:47.367Z,100200.19
2018-03-16T02:24:13.193Z,100191.88
2018-03-16T02:26:39.001Z,100189.90
2018-03-16T02:29:04.788Z,100196.61
2018-03-16T02:31:30.600Z,100192.93
2018-03-16T02:33:56.411Z,100195.12
2018-03-16T02:36:22.219Z,100187.67
2018-03-16T02:38:48.020Z,100184.52
2018-03-16T02:41:13.838Z,100185.70
2018-03-16T02:43:39.629Z,100191.57
2018-03-16T02:46:05.448Z,100187.25
2018-03-16T02:48:31.235Z,100195.98
2018-03-16T02:50:57.028Z,100159.52
2018-03-16T02:53:22.855Z,100155.13
2018-03-16T02:55:48.652Z,100189.31
2018-03-16T02:58:14.435Z,100179.05
2018-03-16T03:00:40.247Z,100180.47
2018-03-16T03:03:06.036Z,100184.89
2018-03-16T03:05:31.839Z,100185.36
2018-03-16T03:07:57.652Z,100178.67
2018-03-16T03:10:23.456Z,100176.98
2018-03-16T03:12:49.378Z,100178.98
2018-03-16T03:15:15.192Z,100179.56
2018-03-16T03:17:42.931Z,100180.87
2018-03-16T03:20:08.752Z,100174.95
2018-03-16T03:22:35.166Z,100180.33
2018-03-16T03:25:00.951Z,100180.27
2018-03-16T03:27:26.782Z,100179.96
2018-03-16T03:29:52.573Z,100176.91
2018-03-16T03:32:18.359Z,100181.05
2018-03-16T03:34:44.171Z,100183.77
2018-03-16T03:37:09.958Z,100185.91
2018-03-16T03:39:35.806Z,100185.69
2018-03-16T03:42:01.625Z,100185.27
2018-03-16T03:44:27.416Z,100183.14
2018-03-16T03:46:53.220Z,100189.02
2018-03-16T03:49:19.034Z,100198.43
2018-03-16T03:51:44.828Z,100197.73
2018-03-16T03:54:10.620Z,100201.20
2018-03-16T03:56:36.407Z,100201.84
2018-03-16T03:59:02.223Z,100209.41
2018-03-16T04:01:28.055Z,100201.42
2018-03-16T04:03:53.832Z,100206.34
2018-03-16T04:06:19.644Z,100207.08
2018-03-16T04:08:45.486Z,100196.48
2018-03-16T04:11:11.275Z,100196.56
2018-03-16T04:13:37.070Z,100204.06
2018-03-16T04:16:02.878Z,100202.04
2018-03-16T04:18:28.688Z,100205.36
2018-03-16T04:20:54.475Z,100198.03
2018-03-16T04:23:20.256Z,100208.79
2018-03-16T04:25:46.084Z,100214.87
2018-03-16T04:28:11.882Z,100201.38
2018-03-16T04:30:37.679Z,100209.64
2018-03-16T04:33:03.484Z,100204.41
2018-03-16T04:35:29.288Z,100207.75
2018-03-16T04:37:55.075Z,100208.07
2018-03-16T04:40:20.895Z,100214.06
2018-03-16T04:42:46.691Z,100200.34
2018-03-16T04:45:12.467Z,100202.17
2018-03-16T04:47:38.360Z,100189.11
2018-03-16T04:50:04.153Z,100211.05
2018-03-16T04:52:29.939Z,100206.70
2018-03-16T04:54:55.761Z,100215.27
2018-03-16T04:57:21.557Z,100211.17
2018-03-16T04:59:47.350Z,100212.33
2018-03-16T05:02:13.222Z,100213.56
2018-03-16T05:04:39.021Z,100214.16
2018-03-16T05:07:04.803Z,100219.78
2018-03-16T05:09:30.612Z,100210.44
2018-03-16T05:11:56.416Z,100212.19
2018-03-16T05:14:22.274Z,100223.02
2018-03-16T05:16:48.082Z,100221.22
2018-03-16T05:19:13.878Z,100212.80
2018-03-16T05:21:39.711Z,100220.06
2018-03-16T05:24:05.510Z,100227.16
2018-03-16T05:26:31.295Z,100219.24
2018-03-16T05:28:57.118Z,100229.81
2018-03-16T05:31:22.903Z,100226.45
2018-03-16T05:33:48.708Z,100232.18
2018-03-16T05:36:14.508Z,100235.18
2018-03-16T05:38:40.338Z,100229.05
2018-03-16T05:41:06.143Z,100241.93
2018-03-16T05:43:32.066Z,100233.63
2018-03-16T05:45:57.867Z,100245.34
2018-03-16T05:48:23.643Z,100250.11
2018-03-16T05:50:49.468Z,100250.86
2018-03-16T05:53:15.276Z,100259.07
2018-03-16T05:55:41.079Z,100264.52
2018-03-16T05:58:06.887Z,100267.78
2018-03-16T06:00:32.695Z,100259.55
2018-03-16T06:02:58.500Z,100273.57
2018-03-16T06:05:24.306Z,100271.25
2018-03-16T06:07:50.118Z,100270.17
2018-03-16T06:10:15.927Z,100268.87
2018-03-16T06:12:41.716Z,100281.94
2018-03-16T06:15:07.506Z,100270.97
2018-03-16T06:17:33.314Z,100276.64
2018-03-16T06:19:59.136Z,100276.61
2018-03-16T06:22:24.952Z,100283.09
2018-03-16T06:24:50.730Z,100285.64
2018-03-16T06:27:16.522Z,100289.63
2018-03-16T06:29:42.589Z,100291.67
2018-03-16T06:32:08.382Z,100297.77
2018-03-16T06:34:34.170Z,100284.37
2018-03-16T06:36:59.959Z,100301.77
2018-03-16T06:39:25.757Z,100301.89
2018-03-16T06:41:51.589Z,100301.39
2018-03-16T06:44:17.378Z,100296.95
2018-03-16T06:46:43.180Z,100299.88
2018-03-16T06:49:08.994Z,100313.90
2018-03-16T06:51:34.792Z,100316.20
2018-03-16T06:54:00.589Z,100321.17
2018-03-16T06:56:26.391Z,100321.73
2018-03-16T06:58:52.240Z,100325.16
2018-03-16T07:01:18.044Z,100315.58
2018-03-16T07:03:43.895Z,100321.59
2018-03-16T07:06:09.721Z,100332.19
2018-03-16T07:08:35.550Z,100324.21
2018-03-16T07:11:01.606Z,100339.03
2018-03-16T07:13:27.391Z,100333.16
2018-03-16T07:15:53.188Z,100348.48
2018-03-16T07:18:19.356Z,100347.30
2018-03-16T07:20:45.162Z,100336.57
2018-03-16T07:23:10.967Z,100350.51
2018-03-16T07:25:36.781Z,100351.00
2018-03-16T07:28:02.592Z,100347.44
2018-03-16T07:30:28.397Z,100350.35
2018-03-16T07:32:54.191Z,100350.37
2018-03-16T07:35:19.991Z,100356.67
2018-03-16T07:37:45.806Z,100363.08
2018-03-16T07:40:11.607Z,100360.44
2018-03-16T07:42:37.395Z,100369.63
2018-03-16T07:45:03.195Z,100372.63
2018-03-16T07:47:28.987Z,100371.98
2018-03-16T07:49:54.785Z,100378.55
2018-03-16T07:52:20.595Z,100376.05
2018-03-16T07:54:46.399Z,100371.58
2018-03-16T07:57:19.075Z,100367.00
2018-03-16T07:59:44.918Z,100369.16
2018-03-16T08:02:10.748Z,100377.23
2018-03-16T08:04:36.561Z,100371.48
2018-03-16T08:07:02.384Z,100379.28
2018-03-16T08:09:28.198Z,100382.09
2018-03-16T08:11:54.066Z,100368.33
2018-03-16T08:14:20.135Z,100387.75
2018-03-16T08:16:45.935Z,100381.91
2018-03-16T08:19:11.719Z,100383.11
2018-03-16T08:21:37.626Z,100385.46
2018-03-16T08:24:03.431Z,100372.47
2018-03-16T08:26:29.220Z,100379.63
2018-03-16T08:28:55.038Z,100386.16
2018-03-16T08:31:20.840Z,100389.98
2018-03-16T08:33:46.635Z,100396.64
2018-03-16T08:36:12.447Z,100391.20
2018-03-16T08:38:38.252Z,100394.54
2018-03-16T08:41:04.036Z,100392.50
2018-03-16T08:43:29.940Z,100381.66
2018-03-16T08:45:55.742Z,100394.90
2018-03-16T08:48:21.600Z,100395.89
2018-03-16T08:50:47.408Z,100401.78
2018-03-16T08:53:13.194Z,100394.19
2018-03-16T08:55:38.967Z,100402.76
2018-03-16T08:58:04.796Z,100402.13
2018-03-16T09:00:30.601Z,100411.27
2018-03-16T09:02:56.422Z,100403.67
2018-03-16T09:05:22.221Z,100405.58
2018-03-16T09:07:48.018Z,100415.41
2018-03-16T09:10:13.794Z,100411.61
2018-03-16T09:12:39.665Z,100420.73
2018-03-16T09:15:05.415Z,100418.16
2018-03-16T09:17:31.208Z,100410.86
2018-03-16T09:19:57.011Z,100417.70
2018-03-16T09:22:22.808Z,100420.59
2018-03-16T09:24:48.588Z,100427.93
2018-03-16T09:27:14.387Z,100419.94
2018-03-16T09:29:40.217Z,100424.60
2018-03-16T09:32:06.027Z,100436.56
2018-03-16T09:34:31.835Z,100425.70
2018-03-16T09:36:57.624Z,100418.12
2018-03-16T09:39:23.421Z,100436.38
2018-03-16T09:41:49.849Z,100437.37
2018-03-16T09:44:15.677Z,100431.71
2018-03-16T09:46:41.505Z,100442.40
2018-03-16T09:49:07.300Z,100433.03
2018-03-16T09:51:33.095Z,100448.06
2018-03-16T09:53:58.907Z,100450.50
2018-03-16T09:56:24.691Z,100454.08
2018-03-16T09:58:50.484Z,100457.72
2018-03-16T10:01:16.317Z,100469.40
2018-03-16T10:03:42.172Z,100460.94
2018-03-16T10:06:08.035Z,100465.84
2018-03-16T10:08:33.855Z,100461.29
2018-03-16T10:10:59.661Z,100465.53
2018-03-16T10:13:25.455Z,100477.30
2018-03-16T10:15:54.172Z,100477.46
2018-03-16T10:18:19.975Z,100494.17
2018-03-16T10:20:45.774Z,100492.50
2018-03-16T10:23:11.628Z,100485.69
2018-03-16T10:25:37.493Z,100488.30
2018-03-16T10:28:03.266Z,100485.82
2018-03-16T10:30:30.525Z,100488.22
2018-03-16T10:32:56.568Z,100489.02
2018-03-16T10:35:22.384Z,100500.44
2018-03-16T10:37:49.437Z,100488.16
2018-03-16T10:40:16.172Z,100497.70
2018-03-16T10:42:42.031Z,100492.75
2018-03-16T10:45:08.163Z,100499.45
2018-03-16T10:47:34.223Z,100504.81
2018-03-16T10:50:00.061Z,100497.62
2018-03-16T10:52:25.878Z,100514.48
2018-03-16T10:54:51.780Z,100521.77
2018-03-16T10:57:17.621Z,100524.95
2018-03-16T10:59:43.492Z,100531.36
2018-03-16T11:02:09.364Z,100527.03
2018-03-16T11:04:40.246Z,100532.23
2018-03-16T11:07:07.940Z,100526.16
2018-03-16T11:09:33.796Z,100540.52
2018-03-16T11:11:59.608Z,100538.48
2018-03-16T11:14:26.427Z,100538.83
2018-03-16T11:16:52.362Z,100541.46
2018-03-16T11:19:18.188Z,100545.70
2018-03-16T11:21:44.600Z,100535.14
2018-03-16T11:24:10.446Z,100542.53
2018-03-16T11:26:36.248Z,100537.28
2018-03-16T11:29:02.086Z,100554.83
2018-03-16T11:31:27.987Z,100547.93
2018-03-16T11:33:54.856Z,100546.70
2018-03-16T11:36:20.689Z,100554.48
2018-03-16T11:38:46.509Z,100535.03
2018-03-16T11:41:12.728Z,100555.28
2018-03-16T11:43:38.523Z,100555.56
2018-03-16T11:46:04.323Z,100559.55
2018-03-16T11:48:31.529Z,100564.39
2018-03-16T11:50:57.336Z,100546.44
2018-03-16T11:53:23.159Z,100560.44
2018-03-16T11:55:48.983Z,100559.92
2018-03-16T11:58:14.825Z,100550.25
2018-03-16T12:00:40.658Z,100557.39
2018-03-16T12:03:06.460Z,100557.81
2018-03-16T12:05:33.288Z,100553.89
2018-03-16T12:07:59.119Z,100550.06
2018-03-16T12:10:24.930Z,100560.62
2018-03-16T12:12:50.730Z,100568.53
2018-03-16T12:15:16.855Z,100567.80
2018-03-16T12:17:42.676Z,100561.72
2018-03-16T12:20:08.474Z,100552.05
2018-03-16T12:22:34.291Z,100554.48
2018-03-16T12:25:00.106Z,100558.53
2018-03-16T12:27:25.986Z,100560.73
2018-03-16T12:29:51.816Z,100557.86
2018-03-16T12:32:17.619Z,100561.95
2018-03-16T12:34:43.403Z,100576.19
2018-03-16T12:37:09.244Z,100553.34
2018-03-16T12:39:35.083Z,100575.44
2018-03-16T12:42:00.915Z,100574.72
2018-03-16T12:44:26.721Z,100566.69
2018-03-16T12:46:52.502Z,100575.13
2018-03-16T12:49:18.283Z,100568.58
2018-03-16T12:51:44.379Z,100567.82
2018-03-16T12:54:10.211Z,100566.25
2018-03-16T12:56:35.998Z,100572.67
2018-03-16T12:59:02.116Z,100575.50
2018-03-16T13:01:27.951Z,100567.87
2018-03-16T13:03:53.731Z,100567.29
2018-03-16T13:06:19.560Z,100570.98
2018-03-16T13:08:45.642Z,100562.08
2018-03-16T13:11:11.497Z,100560.72
2018-03-16T13:13:37.308Z,100580.66
2018-03-16T13:16:03.165Z,100573.17
2018-03-16T13:18:29.307Z,100565.48
2018-03-16T13:20:55.111Z,100565.04
2018-03-16T13:23:21.234Z,100580.56
2018-03-16T13:25:47.043Z,100576.20
2018-03-16T13:28:12.856Z,100573.45
2018-03-16T13:30:38.692Z,100581.06
2018-03-16T13:33:04.521Z,100578.59
2018-03-16T13:35:30.345Z,100580.48
2018-03-16T13:37:56.197Z,100585.73
2018-03-16T13:40:22.025Z,100580.11
2018-03-16T13:42:48.885Z,100587.06
2018-03-16T13:45:15.068Z,100581.33
2018-03-16T13:47:40.910Z,100591.63
2018-03-16T13:50:07.611Z,100579.80
2018-03-16T13:52:33.409Z,100584.41
2018-03-16T13:54:59.192Z,100591.09
2018-03-16T13:57:25.068Z,100578.45
2018-03-16T13:59:50.871Z,100586.94
2018-03-16T14:02:16.667Z,100581.59
2018-03-16T14:04:42.488Z,100574.11
2018-03-16T14:07:08.303Z,100584.59
2018-03-16T14:09:34.086Z,100582.63
2018-03-16T14:12:00.118Z,100573.71
2018-03-16T14:14:25.935Z,100583.75
2018-03-16T14:16:52.053Z,100575.15
2018-03-16T14:19:17.851Z,100583.38
2018-03-16T14:21:43.671Z,100590.23
2018-03-16T14:24:09.462Z,100594.00
2018-03-16T14:26:35.432Z,100595.27
2018-03-16T14:29:01.281Z,100613.96
2018-03-16T14:31:27.092Z,100603.84
2018-03-16T14:33:52.876Z,100616.98
2018-03-16T14:36:18.682Z,100615.48
2018-03-16T14:38:44.475Z,100615.59
2018-03-16T14:41:10.271Z,100616.69
2018-03-16T14:43:36.096Z,100614.62
2018-03-16T14:46:01.906Z,100617.22
2018-03-16T14:48:27.725Z,100611.28
2018-03-16T14:50:53.511Z,100619.13
2018-03-16T14:53:19.319Z,100624.03
2018-03-16T14:55:45.157Z,100611.20
2018-03-16T14:58:10.987Z,100618.76
2018-03-16T15:00:36.772Z,100624.89
2018-03-16T15:03:02.895Z,100623.78
2018-03-16T15:05:28.691Z,100631.17
2018-03-16T15:07:54.488Z,100617.14
2018-03-16T15:10:20.306Z,100616.11
2018-03-16T15:12:46.129Z,100623.91
2018-03-16T15:15:11.960Z,100630.55
2018-03-16T15:17:37.809Z,100637.36
2018-03-16T15:20:03.838Z,100640.76
2018-03-16T15:22:29.685Z,100638.97
2018-03-16T15:24:57.399Z,100628.41
2018-03-16T15:27:23.235Z,100639.82
2018-03-16T15:29:49.037Z,100631.44
2018-03-16T15:32:14.874Z,100638.14
2018-03-16T15:34:40.654Z,100649.94
2018-03-16T15:37:06.457Z,100653.28
2018-03-16T15:39:33.316Z,100651.55
2018-03-16T15:41:59.561Z,100659.62
2018-03-16T15:44:25.339Z,100658.56
2018-03-16T15:46:51.908Z,100658.34
2018-03-16T15:49:17.721Z,100657.55
2018-03-16T15:51:44.035Z,100656.95
2018-03-16T15:54:09.921Z,100663.42
2018-03-16T15:56:36.760Z,100675.48
2018-03-16T15:59:02.571Z,100659.77
2018-03-16T16:01:29.076Z,100668.19
2018-03-16T16:03:54.856Z,100680.39
2018-03-16T16:06:20.652Z,100659.17
2018-03-16T16:08:46.638Z,100676.64
2018-03-16T16:11:12.445Z,100684.44
2018-03-16T16:13:38.228Z,100683.15
2018-03-16T16:16:04.308Z,100693.69
2018-03-16T16:18:30.095Z,100696.95
2018-03-16T16:20:55.896Z,100702.10
2018-03-16T16:23:21.755Z,100700.92
2018-03-16T16:25:47.548Z,100709.39
2018-03-16T16:28:13.367Z,100709.11
2018-03-16T16:30:39.174Z,100724.18
2018-03-16T16:33:04.959Z,100734.75
2018-03-16T16:35:30.779Z,100734.34
2018-03-16T16:37:56.578Z,100724.48
2018-03-16T16:40:22.357Z,100730.94
2018-03-16T16:42:48.180Z,100731.61
2018-03-16T16:45:13.976Z,100730.88
2018-03-16T16:47:39.796Z,100736.81
2018-03-16T16:50:05.984Z,100749.74
2018-03-16T16:52:31.784Z,100741.58
2018-03-16T16:54:57.675Z,100756.95
2018-03-16T16:57:23.382Z,100760.39
2018-03-16T16:59:49.222Z,100750.04
2018-03-16T17:02:15.121Z,100767.53
2018-03-16T17:04:40.932Z,100768.11
2018-03-16T17:07:06.719Z,100774.62
2018-03-16T17:09:32.499Z,100774.31
2018-03-16T17:11:58.333Z,100778.78
2018-03-16T17:14:24.122Z,100782.02
2018-03-16T17:16:49.935Z,100777.42
2018-03-16T17:19:15.764Z,100776.63
2018-03-16T17:21:41.604Z,100788.00
2018-03-16T17:24:07.398Z,100793.47
2018-03-16T17:26:33.191Z,100797.05
2018-03-16T17:28:59.023Z,100810.05
2018-03-16T17:31:24.821Z,100809.92
2018-03-16T17:33:50.615Z,100814.97
2018-03-16T17:36:16.480Z,100807.27
2018-03-16T17:38:42.279Z,100811.88
2018-03-16T17:41:08.120Z,100823.49
2018-03-16T17:43:34.011Z,100833.87
2018-03-16T17:45:59.856Z,100830.13
2018-03-16T17:48:25.691Z,100828.41
2018-03-16T17:50:51.542Z,100838.45
2018-03-16T17:53:17.345Z,100837.55
2018-03-16T17:55:43.261Z,100821.09
2018-03-16T17:58:09.554Z,100831.19
2018-03-16T18:00:35.880Z,100839.15
2018-03-16T18:03:02.055Z,100830.01
2018-03-16T18:05:27.936Z,100842.18
2018-03-16T18:07:54.191Z,100849.45
2018-03-16T18:10:20.510Z,100854.44
2018-03-16T18:12:46.339Z,100861.27
2018-03-16T18:15:12.125Z,100867.34
2018-03-16T18:17:37.930Z,100871.07
2018-03-16T18:20:03.787Z,100877.00
2018-03-16T18:22:29.602Z,100876.08
2018-03-16T18:24:55.399Z,100873.95
2018-03-16T18:27:21.188Z,100863.45
2018-03-16T18:29:46.991Z,100876.26
2018-03-16T18:32:12.806Z,100871.40
2018-03-16T18:34:38.621Z,100880.87
2018-03-16T18:37:04.415Z,100875.94
2018-03-16T18:39:30.217Z,100879.80
2018-03-16T18:41:56.014Z,100902.06
2018-03-16T18:44:21.804Z,100888.53
2018-03-16T18:46:47.600Z,100898.81
2018-03-16T18:49:13.404Z,100898.13
2018-03-16T18:51:39.213Z,100903.06
2018-03-16T18:54:05.023Z,100908.75
2018-03-16T18:56:30.823Z,100906.06
2018-03-16T18:58:56.642Z,100905.86
2018-03-16T19:01:22.443Z,100910.17
2018-03-16T19:03:48.256Z,100918.88
2018-03-16T19:06:14.066Z,100925.21
2018-03-16T19:08:39.874Z,100916.69
2018-03-16T19:11:05.666Z,100917.47
2018-03-16T19:13:31.468Z,100920.30
2018-03-16T19:15:57.272Z,100916.39
2018-03-16T19:18:23.151Z,100919.34
2018-03-16T19:20:49.027Z,100935.59
2018-03-16T19:23:14.816Z,100926.81
2018-03-16T19:25:40.628Z,100927.21
2018-03-16T19:28:06.439Z,100935.70
2018-03-16T19:30:32.261Z,100925.41
2018-03-16T19:32:58.075Z,100922.31
2018-03-16T19:35:23.881Z,100928.29
2018-03-16T19:37:49.690Z,100921.69
2018-03-16T19:40:15.548Z,100934.61
2018-03-16T19:42:41.344Z,100939.89
2018-03-16T19:45:07.136Z,100944.38
2018-03-16T19:47:32.936Z,100940.34
2018-03-16T19:49:58.736Z,100949.14
2018-03-16T19:52:24.843Z,100945.64
2018-03-16T19:54:50.660Z,100956.03
2018-03-16T19:57:16.452Z,100955.59
2018-03-16T19:59:42.263Z,100962.33
2018-03-16T20:02:08.087Z,100968.48
2018-03-16T20:04:33.904Z,100974.12
2018-03-16T20:06:59.720Z,100965.45
2018-03-16T20:09:25.534Z,100973.34
2018-03-16T20:11:51.343Z,100978.08
2018-03-16T20:14:17.173Z,100964.23
2018-03-16T20:16:42.994Z,100979.67
2018-03-16T20:19:08.814Z,100970.70
2018-03-16T20:21:34.766Z,100976.62
2018-03-16T20:24:00.669Z,100978.90
2018-03-16T20:26:26.526Z,100972.07
2018-03-16T20:28:52.501Z,100979.33
2018-03-16T20:31:21.062Z,100987.27
2018-03-16T20:33:46.946Z,100987.34
2018-03-16T20:36:13.737Z,100967.75
2018-03-16T20:38:40.384Z,100959.84
2018-03-16T20:41:06.240Z,100991.48
2018-03-16T20:43:32.990Z,100993.23
2018-03-16T20:45:58.820Z,100997.02
2018-03-16T20:48:24.657Z,101001.33
2018-03-16T20:50:50.513Z,101002.83
2018-03-16T20:53:16.315Z,101003.08
2018-03-16T20:55:42.650Z,101005.81
2018-03-16T20:58:08.507Z,101007.64
2018-03-16T21:00:34.475Z,101014.07
2018-03-16T21:03:00.906Z,101012.33
2018-03-16T21:05:26.718Z,101015.91
2018-03-16T21:07:52.575Z,101020.30
2018-03-16T21:10:19.109Z,101026.81
2018-03-16T21:12:44.987Z,101017.92
2018-03-16T21:15:10.790Z,101027.53
2018-03-16T21:17:36.747Z,101026.63
2018-03-16T21:20:02.623Z,101018.91
2018-03-16T21:22:28.499Z,101035.87
2018-03-16T21:24:54.308Z,101031.73
2018-03-16T21:27:20.763Z,101040.70
2018-03-16T21:29:49.206Z,101043.97
2018-03-16T21:32:15.060Z,101043.97
2018-03-16T21:34:40.926Z,101056.79
2018-03-16T21:37:07.653Z,101050.20
2018-03-16T21:39:33.472Z,101044.64
2018-03-16T21:42:00.235Z,101049.84
2018-03-16T21:44:26.032Z,101054.48
2018-03-16T21:46:51.846Z,101048.16
2018-03-16T21:49:18.624Z,101047.02
2018-03-16T21:51:44.510Z,101044.92
2018-03-16T21:54:10.336Z,101052.02
2018-03-16T21:56:36.966Z,101055.71
2018-03-16T21:59:02.820Z,101058.97
2018-03-16T22:01:28.773Z,101052.30
2018-03-16T22:03:54.577Z,101048.25
2018-03-16T22:06:21.300Z,101062.21
2018-03-16T22:08:47.121Z,101050.36
2018-03-16T22:11:12.965Z,101053.53
2018-03-16T22:13:38.805Z,101056.07
2018-03-16T22:16:04.621Z,101058.09
2018-03-16T22:18:31.107Z,101052.80
2018-03-16T22:20:56.899Z,101030.39
2018-03-16T22:23:23.187Z,101049.30
2018-03-16T22:25:49.000Z,101050.68
2018-03-16T22:28:15.437Z,101059.00
2018-03-16T22:30:41.256Z,101058.13
2018-03-16T22:33:07.643Z,101072.54
2018-03-16T22:35:33.483Z,101069.89
2018-03-16T22:37:59.413Z,101069.02
2018-03-16T22:40:26.242Z,101077.11
2018-03-16T22:42:52.136Z,101075.88
2018-03-16T22:45:17.955Z,101067.64
2018-03-16T22:47:43.826Z,101070.63
2018-03-16T22:50:09.663Z,101063.33
2018-03-16T22:52:35.455Z,101072.11
2018-03-16T22:55:01.271Z,101073.16
2018-03-16T22:57:27.193Z,101073.57
2018-03-16T22:59:53.010Z,101093.80
2018-03-16T23:02:18.803Z,101073.59
2018-03-16T23:04:44.655Z,101072.36
2018-03-16T23:07:10.609Z,101069.53
2018-03-16T23:09:36.432Z,101074.19
2018-03-16T23:12:02.244Z,101064.63
2018-03-16T23:14:28.109Z,101076.86
2018-03-16T23:16:53.971Z,101090.91
2018-03-16T23:19:19.762Z,101081.34
2018-03-16T23:21:45.579Z,101086.77
2018-03-16T23:24:11.380Z,101072.73
2018-03-16T23:26:37.185Z,101092.27
2018-03-16T23:29:02.983Z,101069.75
2018-03-16T23:31:28.793Z,101099.39
2018-03-16T23:33:54.597Z,101084.26
2018-03-16T23:36:20.426Z,101101.66
2018-03-16T23:38:46.220Z,101107.27
2018-03-16T23:41:12.010Z,101097.94
2018-03-16T23:43:37.914Z,101099.52
2018-03-16T23:46:03.729Z,101097.05
2018-03-16T23:48:29.535Z,101106.39
2018-03-16T23:50:55.363Z,101103.84
2018-03-16T23:53:21.155Z,101100.38
2018-03-16T23:55:46.950Z,101110.25
2018-03-16T23:58:12.778Z,101114.72
